Time;durP1;ratioP1;P1;durP2;ratioP2;P2;SDS_P1;SDS_P2;PMS_P1;PMS_P2;Temp;Humidity;BMP_temperature;BMP_pressure;BME280_temperature;BME280_humidity;BME280_pressure;Samples;Min_cycle;Max_cycle;Signal;HPM_P1;HPM_P2
2020/12/30 00:00:03;;;;;;;15.75;9.77;;;3.50;99.90;;;;;;5065581;28;20823;-79
2020/12/30 00:02:30;;;;;;;16.35;8.35;;;3.50;99.90;;;;;;5064243;28;20491;-79
2020/12/30 00:04:57;;;;;;;19.55;8.88;;;3.50;99.90;;;;;;5044814;28;20046;-79
2020/12/30 00:07:23;;;;;;;20.85;7.70;;;3.50;99.90;;;;;;5079331;28;20051;-80
2020/12/30 00:09:49;;;;;;;13.05;6.70;;;3.80;99.90;;;;;;5083419;28;20036;-82
2020/12/30 00:12:19;;;;;;;12.50;6.28;;;3.50;99.90;;;;;;5070588;28;20044;-82
2020/12/30 00:14:45;;;;;;;12.82;5.80;;;3.50;99.90;;;;;;5046978;28;20043;-81
2020/12/30 00:17:12;;;;;;;8.13;5.07;;;3.60;99.90;;;;;;5078412;28;20969;-79
2020/12/30 00:19:37;;;;;;;7.63;5.00;;;3.50;99.90;;;;;;5055961;28;20067;-80
2020/12/30 00:22:04;;;;;;;6.85;4.10;;;3.50;99.90;;;;;;5050301;28;20493;-80
2020/12/30 00:24:30;;;;;;;6.82;3.63;;;3.60;99.90;;;;;;5076396;28;20060;-80
2020/12/30 00:26:56;;;;;;;3.97;3.28;;;3.60;99.90;;;;;;5060537;28;20052;-81
2020/12/30 00:29:22;;;;;;;6.97;3.20;;;3.80;99.90;;;;;;5043511;28;20193;-82
2020/12/30 00:31:48;;;;;;;7.22;3.20;;;3.70;99.90;;;;;;5073261;28;20440;-82
2020/12/30 00:34:13;;;;;;;4.70;2.80;;;3.50;99.90;;;;;;5088741;28;20040;-79
2020/12/30 00:36:39;;;;;;;7.15;3.20;;;3.50;99.90;;;;;;5088830;28;20039;-82
2020/12/30 00:39:06;;;;;;;3.70;2.85;;;3.60;99.90;;;;;;5076775;28;20048;-81
2020/12/30 00:41:33;;;;;;;5.07;3.10;;;3.40;99.90;;;;;;5082851;28;20432;-79
2020/12/30 00:43:59;;;;;;;8.25;3.40;;;3.40;99.90;;;;;;5090768;28;20054;-80
2020/12/30 00:46:26;;;;;;;6.10;4.00;;;3.40;99.90;;;;;;5094314;28;20047;-80
2020/12/30 00:48:52;;;;;;;7.10;4.18;;;3.40;99.90;;;;;;5084661;28;20156;-81
2020/12/30 00:51:18;;;;;;;7.22;4.28;;;3.40;99.90;;;;;;5077147;28;20654;-82
2020/12/30 00:53:44;;;;;;;8.70;4.57;;;3.40;99.90;;;;;;5071509;28;20764;-81
2020/12/30 00:56:10;;;;;;;8.82;4.22;;;3.30;99.90;;;;;;5091084;28;20042;-81
2020/12/30 00:58:37;;;;;;;9.10;4.15;;;3.30;99.90;;;;;;5071648;28;20391;-81
2020/12/30 01:01:08;;;;;;;7.93;4.10;;;3.30;99.90;;;;;;5089506;28;20109;-80
2020/12/30 01:03:34;;;;;;;6.85;4.70;;;3.30;99.90;;;;;;5088776;28;20163;-80
2020/12/30 01:06:01;;;;;;;7.90;4.50;;;3.20;99.90;;;;;;5091457;28;20035;-80
2020/12/30 01:08:27;;;;;;;8.45;4.10;;;3.10;99.90;;;;;;5078042;28;20559;-81
2020/12/30 01:10:53;;;;;;;9.68;4.80;;;3.20;99.90;;;;;;5094429;28;20032;-81
2020/12/30 01:13:19;;;;;;;8.23;5.00;;;3.20;99.90;;;;;;5094824;28;20048;-79
2020/12/30 01:15:45;;;;;;;9.38;4.82;;;3.00;99.90;;;;;;5067215;28;20047;-81
2020/12/30 01:18:11;;;;;;;8.15;5.50;;;3.00;99.90;;;;;;5063178;28;20040;-83
2020/12/30 01:20:37;;;;;;;6.75;5.10;;;3.10;99.90;;;;;;5087050;28;20036;-81
2020/12/30 01:23:02;;;;;;;9.52;5.35;;;3.10;99.90;;;;;;5076732;28;20078;-80
2020/12/30 01:25:28;;;;;;;8.57;5.60;;;3.00;99.90;;;;;;5074572;28;20032;-79
2020/12/30 01:27:55;;;;;;;8.80;5.80;;;3.00;99.90;;;;;;5085776;28;20101;-82
2020/12/30 01:30:22;;;;;;;10.35;6.78;;;3.00;99.90;;;;;;5087669;28;20154;-83
2020/12/30 01:32:48;;;;;;;8.32;6.03;;;3.20;99.90;;;;;;5088137;28;20056;-82
2020/12/30 01:35:13;;;;;;;12.32;7.28;;;3.10;99.90;;;;;;5074174;28;20044;-82
2020/12/30 01:37:40;;;;;;;13.35;7.65;;;2.90;99.90;;;;;;5097007;28;20440;-79
2020/12/30 01:40:06;;;;;;;14.80;8.65;;;3.00;99.90;;;;;;5099671;28;20139;-81
2020/12/30 01:42:44;;;;;;;16.00;9.35;;;3.10;99.90;;;;;;5075856;28;20134;-79
2020/12/30 01:45:10;;;;;;;22.02;10.18;;;3.00;99.90;;;;;;5093205;28;20100;-83
2020/12/30 01:47:35;;;;;;;18.88;10.63;;;3.10;99.90;;;;;;5095091;28;20044;-81
2020/12/30 01:50:04;;;;;;;18.58;10.10;;;3.10;99.90;;;;;;5069728;28;20056;-82
2020/12/30 01:52:31;;;;;;;20.73;11.48;;;3.10;99.90;;;;;;5092460;28;20399;-81
2020/12/30 01:54:57;;;;;;;21.98;12.23;;;2.90;99.90;;;;;;5094662;28;20082;-81
2020/12/30 01:57:23;;;;;;;20.17;12.57;;;3.00;99.90;;;;;;5070690;28;20044;-80
2020/12/30 01:59:49;;;;;;;22.25;13.50;;;3.00;99.90;;;;;;5088775;28;20052;-79
2020/12/30 02:02:15;;;;;;;22.33;13.10;;;3.40;99.90;;;;;;5068418;28;20144;-81
2020/12/30 02:04:50;;;;;;;25.92;14.60;;;3.40;99.90;;;;;;5072293;28;20146;-82
2020/12/30 02:07:16;;;;;;;34.08;15.80;;;3.70;99.90;;;;;;5070352;28;20040;-81
2020/12/30 02:09:43;;;;;;;28.27;16.85;;;3.10;99.90;;;;;;5076542;28;20079;-83
2020/12/30 02:12:10;;;;;;;29.75;17.02;;;3.10;99.90;;;;;;5092136;28;20407;-80
2020/12/30 02:14:36;;;;;;;31.48;16.85;;;3.10;99.90;;;;;;5086273;28;20047;-82
2020/12/30 02:17:02;;;;;;;32.17;17.25;;;3.10;99.90;;;;;;5080138;28;20040;-79
2020/12/30 02:19:28;;;;;;;31.70;17.63;;;3.10;99.90;;;;;;5078289;28;20060;-79
2020/12/30 02:22:03;;;;;;;34.03;16.85;;;3.10;99.90;;;;;;5073400;28;20048;-80
2020/12/30 02:24:36;;;;;;;33.83;17.50;;;3.10;99.90;;;;;;5070011;28;20067;-81
2020/12/30 02:27:05;;;;;;;36.63;18.73;;;3.50;99.90;;;;;;5091332;28;20040;-83
2020/12/30 02:29:32;;;;;;;34.25;19.23;;;3.10;99.90;;;;;;5052704;28;20051;-83
2020/12/30 02:31:58;;;;;;;34.45;18.50;;;3.10;99.90;;;;;;5088924;28;20105;-82
2020/12/30 02:34:25;;;;;;;37.35;18.67;;;3.30;99.90;;;;;;5093041;28;20047;-79
2020/12/30 02:36:51;;;;;;;44.92;20.42;;;3.10;99.90;;;;;;5091787;28;20174;-81
2020/12/30 02:39:19;;;;;;;38.78;18.85;;;3.00;99.90;;;;;;5070603;28;20051;-79
2020/12/30 02:41:45;;;;;;;40.35;20.98;;;3.10;99.90;;;;;;5096651;28;20092;-80
2020/12/30 02:44:11;;;;;;;36.33;19.98;;;3.00;99.90;;;;;;5089746;28;20479;-80
2020/12/30 02:46:36;;;;;;;36.50;20.27;;;2.90;99.90;;;;;;5075756;28;20032;-83
2020/12/30 02:49:02;;;;;;;35.55;20.55;;;3.20;99.90;;;;;;5088148;28;20096;-81
2020/12/30 02:51:28;;;;;;;43.85;21.65;;;2.90;99.90;;;;;;5068622;28;20036;-80
2020/12/30 02:53:54;;;;;;;47.60;23.38;;;2.80;99.90;;;;;;5098249;28;20677;-79
2020/12/30 02:56:20;;;;;;;44.38;23.30;;;2.80;99.90;;;;;;5079428;28;20051;-80
2020/12/30 02:58:46;;;;;;;46.58;23.13;;;2.80;99.90;;;;;;5080481;28;20041;-83
2020/12/30 03:01:13;;;;;;;46.22;23.92;;;3.10;99.90;;;;;;5080133;28;20043;-79
2020/12/30 03:03:40;;;;;;;59.90;26.30;;;2.80;99.90;;;;;;5094155;28;20047;-84
2020/12/30 03:06:06;;;;;;;50.42;25.98;;;2.90;99.90;;;;;;5095487;28;20036;-83
2020/12/30 03:08:32;;;;;;;48.20;25.55;;;2.90;99.90;;;;;;5093124;28;20147;-83
2020/12/30 03:10:59;;;;;;;55.22;26.35;;;3.00;99.90;;;;;;5093382;28;20035;-81
2020/12/30 03:13:24;;;;;;;50.58;26.40;;;3.50;99.90;;;;;;5077037;28;20501;-81
2020/12/30 03:15:50;;;;;;;60.00;28.02;;;3.00;99.90;;;;;;5088790;28;20056;-81
2020/12/30 03:18:16;;;;;;;56.83;28.70;;;3.00;99.90;;;;;;5097907;28;20059;-80
2020/12/30 03:20:42;;;;;;;54.85;27.83;;;3.00;99.90;;;;;;5088035;28;20111;-83
2020/12/30 03:23:08;;;;;;;55.05;28.38;;;3.10;99.90;;;;;;5072884;28;20082;-80
2020/12/30 03:25:34;;;;;;;54.00;28.75;;;3.30;99.90;;;;;;5057174;28;20035;-82
2020/12/30 03:28:01;;;;;;;60.72;29.75;;;3.00;99.90;;;;;;5060807;28;20032;-83
2020/12/30 03:30:26;;;;;;;56.67;28.55;;;3.00;99.90;;;;;;5043219;28;20040;-81
2020/12/30 03:32:52;;;;;;;61.22;29.13;;;3.00;99.90;;;;;;5061758;28;20037;-82
2020/12/30 03:35:18;;;;;;;58.08;29.45;;;3.00;99.90;;;;;;5065407;28;20044;-83
2020/12/30 03:37:44;;;;;;;59.85;28.73;;;2.90;99.90;;;;;;5046294;28;20043;-82
2020/12/30 03:40:10;;;;;;;59.28;29.25;;;2.90;99.90;;;;;;5062070;28;20756;-78
2020/12/30 03:42:36;;;;;;;58.08;28.73;;;2.80;99.90;;;;;;5048651;28;20040;-83
2020/12/30 03:45:03;;;;;;;54.45;27.27;;;2.90;99.90;;;;;;5044460;28;20055;-83
2020/12/30 03:47:30;;;;;;;57.95;29.45;;;2.90;99.90;;;;;;5064582;28;20135;-79
2020/12/30 03:49:58;;;;;;;62.85;29.90;;;2.90;99.90;;;;;;5044452;28;20922;-82
2020/12/30 03:52:25;;;;;;;59.65;27.77;;;3.10;99.90;;;;;;5045451;28;20044;-82
2020/12/30 03:54:50;;;;;;;61.17;28.45;;;2.90;99.90;;;;;;5060132;28;20534;-81
2020/12/30 03:57:19;;;;;;;56.78;26.48;;;3.00;99.90;;;;;;5059791;28;20820;-83
2020/12/30 03:59:45;;;;;;;55.70;28.08;;;3.00;99.90;;;;;;5061608;28;20073;-81
2020/12/30 04:02:11;;;;;;;50.72;26.15;;;3.00;99.90;;;;;;5057622;28;20145;-80
2020/12/30 04:04:36;;;;;;;54.33;26.95;;;3.10;99.90;;;;;;5062598;28;20492;-80
2020/12/30 04:07:02;;;;;;;58.38;26.05;;;3.10;99.90;;;;;;5063518;28;20119;-84
2020/12/30 04:09:28;;;;;;;55.33;27.30;;;3.30;99.90;;;;;;5063468;28;20039;-80
2020/12/30 04:11:53;;;;;;;53.13;25.20;;;3.30;99.90;;;;;;5061058;28;20435;-81
2020/12/30 04:14:19;;;;;;;53.45;27.13;;;3.20;99.90;;;;;;5043197;28;20040;-84
2020/12/30 04:16:45;;;;;;;56.85;25.85;;;3.20;99.90;;;;;;5058222;28;20036;-81
2020/12/30 04:19:11;;;;;;;52.88;24.92;;;3.20;99.90;;;;;;5050414;28;20454;-81
2020/12/30 04:21:37;;;;;;;49.38;23.17;;;3.30;99.90;;;;;;5059713;28;20048;-81
2020/12/30 04:24:04;;;;;;;47.75;25.05;;;3.30;99.90;;;;;;5059592;28;20052;-80
2020/12/30 04:26:29;;;;;;;54.63;25.85;;;3.30;99.90;;;;;;5070811;28;20051;-80
2020/12/30 04:28:55;;;;;;;51.63;24.83;;;3.30;99.90;;;;;;5074483;28;20039;-81
2020/12/30 04:31:21;;;;;;;48.13;24.55;;;3.30;99.90;;;;;;5077577;28;20105;-82
2020/12/30 04:33:47;;;;;;;52.08;25.17;;;3.30;99.90;;;;;;5069569;28;20178;-82
2020/12/30 04:36:14;;;;;;;51.33;25.88;;;3.30;99.90;;;;;;5071552;28;20043;-83
2020/12/30 04:38:40;;;;;;;47.60;23.17;;;3.40;99.90;;;;;;5071604;28;20469;-82
2020/12/30 04:41:11;;;;;;;51.65;25.65;;;3.30;99.90;;;;;;5072309;28;20097;-80
2020/12/30 04:43:40;;;;;;;51.15;24.48;;;3.30;99.90;;;;;;5072603;28;20667;-80
2020/12/30 04:46:06;;;;;;;48.88;24.13;;;3.40;99.90;;;;;;5073694;28;20498;-84
2020/12/30 04:48:33;;;;;;;50.70;24.52;;;3.30;99.90;;;;;;5074637;28;20037;-81
2020/12/30 04:51:00;;;;;;;50.50;24.35;;;3.40;99.90;;;;;;5068867;28;20049;-82
2020/12/30 04:53:28;;;;;;;50.97;23.23;;;3.40;99.90;;;;;;5071450;28;20501;-81
2020/12/30 04:55:58;;;;;;;53.28;22.40;;;3.40;99.90;;;;;;5076233;28;20036;-81
2020/12/30 04:58:27;;;;;;;47.10;23.55;;;3.30;99.90;;;;;;5072128;28;20410;-81
2020/12/30 05:00:53;;;;;;;53.00;23.73;;;3.40;99.90;;;;;;5054418;28;20131;-83
2020/12/30 05:03:31;;;;;;;45.28;20.23;;;3.40;99.90;;;;;;5071484;28;20055;-79
2020/12/30 05:06:03;;;;;;;45.10;21.05;;;3.30;99.90;;;;;;5069242;28;20032;-81
2020/12/30 05:08:33;;;;;;;42.30;20.15;;;3.50;99.90;;;;;;5070109;28;20039;-81
2020/12/30 05:11:00;;;;;;;45.00;20.63;;;3.40;99.90;;;;;;5072247;28;20422;-82
2020/12/30 05:13:26;;;;;;;45.08;20.25;;;3.40;99.90;;;;;;5071559;28;20044;-83
2020/12/30 05:15:52;;;;;;;41.33;20.90;;;3.40;99.90;;;;;;5067640;28;20176;-83
2020/12/30 05:18:22;;;;;;;40.53;19.45;;;3.40;99.90;;;;;;5057861;28;20392;-80
2020/12/30 05:20:48;;;;;;;46.20;19.77;;;3.50;99.90;;;;;;5060128;28;20183;-80
2020/12/30 05:23:14;;;;;;;39.05;18.95;;;3.80;99.90;;;;;;5071149;28;20129;-80
2020/12/30 05:25:44;;;;;;;40.90;19.35;;;3.40;99.90;;;;;;5088726;28;20479;-81
2020/12/30 05:28:14;;;;;;;42.53;19.70;;;3.40;99.90;;;;;;5093680;28;20085;-83
2020/12/30 05:30:42;;;;;;;41.00;19.30;;;3.60;99.90;;;;;;5086248;28;20450;-82
2020/12/30 05:33:08;;;;;;;40.53;18.13;;;3.40;99.90;;;;;;5073865;28;20051;-82
2020/12/30 05:35:34;;;;;;;35.17;17.52;;;3.40;99.90;;;;;;5088362;28;20035;-83
2020/12/30 05:38:01;;;;;;;39.25;17.08;;;3.50;99.90;;;;;;5073509;28;20036;-83
2020/12/30 05:40:32;;;;;;;35.03;15.88;;;3.60;99.90;;;;;;5057175;28;20043;-83
2020/12/30 05:43:11;;;;;;;32.20;15.90;;;3.50;99.90;;;;;;5073213;28;20101;-81
2020/12/30 05:45:51;;;;;;;38.28;16.73;;;3.50;99.90;;;;;;5085547;28;20032;-81
2020/12/30 05:48:18;;;;;;;33.22;16.67;;;3.50;99.90;;;;;;5090839;28;20038;-81
2020/12/30 05:50:56;;;;;;;37.10;17.23;;;3.50;99.90;;;;;;5074600;28;20039;-80
2020/12/30 05:53:23;;;;;;;35.42;15.90;;;3.50;99.90;;;;;;5072488;28;20407;-86
2020/12/30 05:55:51;;;;;;;32.40;16.23;;;3.50;99.90;;;;;;5091829;28;20044;-85
2020/12/30 05:58:18;;;;;;;41.97;17.80;;;3.60;99.90;;;;;;5084341;28;20086;-83
2020/12/30 06:00:46;;;;;;;38.30;17.67;;;3.50;99.90;;;;;;5094713;28;20043;-81
2020/12/30 06:03:13;;;;;;;42.03;18.08;;;3.50;99.90;;;;;;5074325;28;20463;-85
2020/12/30 06:05:39;;;;;;;39.15;16.63;;;3.60;99.90;;;;;;5068841;28;20036;-84
2020/12/30 06:08:05;;;;;;;38.78;18.02;;;3.50;99.90;;;;;;5089526;28;20100;-86
2020/12/30 06:10:32;;;;;;;41.17;18.77;;;3.50;99.90;;;;;;5090870;28;20512;-81
2020/12/30 06:13:00;;;;;;;45.92;19.25;;;3.50;99.90;;;;;;5096606;28;20111;-82
2020/12/30 06:15:28;;;;;;;40.25;19.15;;;3.70;99.90;;;;;;5069853;28;20032;-81
2020/12/30 06:18:04;;;;;;;48.92;19.83;;;3.70;99.90;;;;;;5091737;28;20032;-81
2020/12/30 06:20:38;;;;;;;44.17;18.98;;;3.50;99.90;;;;;;5088785;28;20116;-84
2020/12/30 06:23:15;;;;;;;40.10;18.30;;;3.60;99.90;;;;;;5089735;28;20039;-82
2020/12/30 06:25:45;;;;;;;44.50;19.30;;;3.60;99.90;;;;;;5094814;28;20043;-81
2020/12/30 06:28:21;;;;;;;48.78;19.73;;;3.80;99.90;;;;;;5098295;28;20396;-79
2020/12/30 06:30:51;;;;;;;43.53;20.00;;;3.70;99.90;;;;;;5067690;28;20045;-83
2020/12/30 06:33:22;;;;;;;49.03;20.50;;;3.60;99.90;;;;;;5087687;28;20067;-82
2020/12/30 06:35:56;;;;;;;47.42;20.45;;;3.70;99.90;;;;;;5080985;28;20111;-82
2020/12/30 06:38:26;;;;;;;52.37;20.80;;;3.60;99.90;;;;;;5056767;28;20067;-80
2020/12/30 06:40:54;;;;;;;51.50;21.70;;;3.70;99.90;;;;;;5079265;28;20505;-82
2020/12/30 06:43:39;;;;;;;44.30;20.48;;;3.60;99.90;;;;;;5083545;28;20036;-80
2020/12/30 06:46:05;;;;;;;42.53;19.75;;;3.60;99.90;;;;;;5079514;28;20497;-83
2020/12/30 06:48:54;;;;;;;43.42;20.70;;;3.60;99.90;;;;;;5077075;28;20438;-83
2020/12/30 06:51:20;;;;;;;46.22;20.65;;;3.50;99.90;;;;;;5084382;28;20093;-83
2020/12/30 06:53:59;;;;;;;44.40;20.55;;;3.60;99.90;;;;;;5094780;28;20044;-81
2020/12/30 06:56:44;;;;;;;52.95;22.08;;;3.50;99.90;;;;;;5096392;28;20043;-81
2020/12/30 06:59:29;;;;;;;47.20;20.60;;;3.50;99.90;;;;;;5077267;28;20047;-79
2020/12/30 07:02:02;;;;;;;52.25;23.05;;;3.50;99.90;;;;;;5081394;28;20055;-79
2020/12/30 07:04:37;;;;;;;48.83;22.45;;;3.50;99.90;;;;;;5091318;28;20028;-81
2020/12/30 07:07:19;;;;;;;46.72;21.55;;;3.50;99.90;;;;;;5075191;28;20040;-80
2020/12/30 07:09:45;;;;;;;53.15;22.10;;;3.50;99.90;;;;;;5095780;28;20108;-82
2020/12/30 07:12:11;;;;;;;46.53;21.40;;;3.40;99.90;;;;;;5060809;28;20052;-82
2020/12/30 07:14:37;;;;;;;44.83;21.52;;;3.50;99.90;;;;;;5061263;28;20064;-81
2020/12/30 07:17:05;;;;;;;45.25;20.60;;;3.50;99.90;;;;;;5062070;28;20439;-81
2020/12/30 07:19:32;;;;;;;44.13;22.25;;;3.50;99.90;;;;;;5069194;28;20508;-82
2020/12/30 07:22:11;;;;;;;52.95;22.08;;;3.60;99.90;;;;;;5061080;28;20055;-82
2020/12/30 07:24:55;;;;;;;41.72;20.02;;;3.40;99.90;;;;;;5080209;28;20522;-81
2020/12/30 07:27:26;;;;;;;39.33;19.20;;;3.50;99.90;;;;;;5085686;28;20384;-79
2020/12/30 07:29:51;;;;;;;38.70;18.85;;;3.40;99.90;;;;;;5092401;28;20125;-82
2020/12/30 07:32:20;;;;;;;44.67;20.23;;;3.40;99.90;;;;;;5056492;28;20084;-81
2020/12/30 07:34:48;;;;;;;33.08;17.77;;;3.40;99.90;;;;;;5086180;28;20126;-83
2020/12/30 07:37:15;;;;;;;35.85;17.73;;;3.40;99.90;;;;;;5093348;28;20090;-84
2020/12/30 07:39:46;;;;;;;40.85;18.70;;;3.40;99.90;;;;;;5084135;28;20059;-81
2020/12/30 07:42:20;;;;;;;39.88;17.75;;;3.40;99.90;;;;;;5097890;28;20043;-83
2020/12/30 07:44:49;;;;;;;36.83;18.17;;;3.40;99.90;;;;;;5095834;28;20036;-81
2020/12/30 07:47:20;;;;;;;38.20;18.27;;;3.40;99.90;;;;;;5088603;28;20036;-82
2020/12/30 07:49:46;;;;;;;37.55;18.42;;;3.40;99.90;;;;;;5061049;28;20048;-82
2020/12/30 07:52:12;;;;;;;42.58;18.38;;;3.40;99.90;;;;;;5091347;28;20047;-80
2020/12/30 07:54:38;;;;;;;40.72;20.00;;;3.50;99.90;;;;;;5075389;28;20075;-79
2020/12/30 07:57:11;;;;;;;41.42;19.80;;;3.50;99.90;;;;;;5091596;28;20830;-79
2020/12/30 07:59:46;;;;;;;48.03;22.65;;;3.40;99.90;;;;;;5074327;28;20044;-80
2020/12/30 08:02:13;;;;;;;45.65;21.33;;;3.50;99.90;;;;;;5077070;28;20039;-79
2020/12/30 08:04:40;;;;;;;52.22;21.10;;;3.40;99.90;;;;;;5073331;28;20052;-78
2020/12/30 08:07:08;;;;;;;41.10;19.58;;;3.50;99.90;;;;;;5071507;28;20060;-79
2020/12/30 08:09:36;;;;;;;36.80;19.20;;;3.40;99.90;;;;;;5072510;28;20425;-78
2020/12/30 08:12:04;;;;;;;40.30;18.85;;;3.50;99.90;;;;;;5059970;28;20413;-80
2020/12/30 08:14:31;;;;;;;33.20;18.40;;;3.50;99.90;;;;;;5069518;28;20036;-81
2020/12/30 08:17:05;;;;;;;32.03;18.00;;;3.60;99.90;;;;;;5060847;28;20044;-84
2020/12/30 08:19:37;;;;;;;32.13;17.80;;;3.60;99.90;;;;;;5068479;28;20048;-82
2020/12/30 08:22:17;;;;;;;40.55;17.05;;;3.50;99.90;;;;;;5043689;28;20097;-81
2020/12/30 08:24:52;;;;;;;32.67;17.02;;;3.50;99.90;;;;;;5094962;28;20890;-85
2020/12/30 08:27:22;;;;;;;30.58;15.68;;;3.50;99.90;;;;;;5080281;28;20066;-82
2020/12/30 08:29:48;;;;;;;24.02;14.55;;;3.60;99.90;;;;;;5073287;28;20040;-85
2020/12/30 08:32:29;;;;;;;25.25;14.38;;;3.60;99.90;;;;;;5078212;28;20619;-83
2020/12/30 08:34:57;;;;;;;23.95;13.73;;;3.50;99.90;;;;;;5061273;28;20177;-80
2020/12/30 08:37:37;;;;;;;24.38;12.85;;;3.60;99.90;;;;;;5092787;28;20105;-84
2020/12/30 08:40:03;;;;;;;24.48;14.13;;;3.50;99.90;;;;;;5084818;28;20510;-81
2020/12/30 08:42:50;;;;;;;24.85;13.43;;;3.50;99.90;;;;;;5092334;28;20153;-81
2020/12/30 08:45:25;;;;;;;22.85;12.88;;;3.50;99.90;;;;;;5018848;28;20126;-81
2020/12/30 08:47:54;;;;;;;25.13;13.82;;;3.50;99.90;;;;;;5045138;28;20044;-81
2020/12/30 08:50:25;;;;;;;23.30;13.45;;;3.50;99.90;;;;;;5088893;28;20036;-81
2020/12/30 08:52:55;;;;;;;27.23;13.68;;;3.60;99.90;;;;;;5070685;28;20491;-81
2020/12/30 08:55:21;;;;;;;27.42;13.93;;;3.60;99.90;;;;;;5050906;28;20139;-81
2020/12/30 08:57:49;;;;;;;29.45;14.98;;;3.60;99.90;;;;;;5086191;28;20093;-81
2020/12/30 09:00:18;;;;;;;32.20;16.05;;;3.60;99.90;;;;;;5088635;28;20040;-81
2020/12/30 09:02:45;;;;;;;27.85;16.42;;;3.60;99.90;;;;;;5057450;28;20058;-81
2020/12/30 09:05:12;;;;;;;34.20;18.33;;;3.70;99.90;;;;;;5054522;28;20051;-81
2020/12/30 09:07:39;;;;;;;31.00;16.92;;;3.60;99.90;;;;;;5073091;28;20043;-81
2020/12/30 09:10:12;;;;;;;30.73;16.58;;;3.80;99.90;;;;;;5056481;28;20044;-81
2020/12/30 09:12:38;;;;;;;29.08;16.70;;;3.80;99.90;;;;;;5080131;28;20043;-81
2020/12/30 09:15:06;;;;;;;36.53;19.40;;;3.70;99.90;;;;;;5059238;28;20122;-81
2020/12/30 09:17:33;;;;;;;33.67;19.65;;;3.90;99.90;;;;;;5092468;28;20461;-78
2020/12/30 09:23:44;;;;;;;33.75;19.35;;;3.80;99.90;;;;;;5085961;28;20039;-85
2020/12/30 09:26:28;;;;;;;33.50;19.15;;;3.80;99.90;;;;;;5075215;28;20467;-89
2020/12/30 09:28:56;;;;;;;38.70;21.00;;;3.80;99.90;;;;;;5099039;28;20125;-81
2020/12/30 09:31:22;;;;;;;34.40;20.13;;;4.00;99.90;;;;;;5056553;28;20140;-79
2020/12/30 09:33:48;;;;;;;41.80;20.38;;;3.90;99.90;;;;;;5092264;28;20561;-78
2020/12/30 09:36:16;;;;;;;46.83;21.48;;;4.10;99.90;;;;;;5076716;28;20060;-81
2020/12/30 09:38:42;;;;;;;41.90;21.67;;;3.90;99.90;;;;;;5090042;28;20047;-81
2020/12/30 09:41:14;;;;;;;37.30;19.90;;;4.00;99.90;;;;;;5068426;28;20048;-81
2020/12/30 09:43:45;;;;;;;40.22;19.90;;;4.20;99.90;;;;;;5069326;28;20053;-81
2020/12/30 09:46:20;;;;;;;38.10;20.17;;;4.10;99.90;;;;;;5068688;28;20483;-81
2020/12/30 09:48:46;;;;;;;36.80;20.15;;;4.00;99.90;;;;;;5090439;28;20036;-81
2020/12/30 09:51:15;;;;;;;38.05;20.27;;;4.10;99.90;;;;;;5070429;28;20093;-81
2020/12/30 09:53:40;;;;;;;40.95;20.40;;;4.20;99.90;;;;;;5070775;28;20051;-81
2020/12/30 09:56:13;;;;;;;31.85;13.00;;;4.10;99.90;;;;;;5044534;28;20496;-79
2020/12/30 09:58:42;;;;;;;29.17;16.38;;;4.90;99.90;;;;;;5080645;28;20123;-83
2020/12/30 10:01:28;;;;;;;32.35;18.23;;;4.60;99.90;;;;;;5077108;28;20073;-83
2020/12/30 10:03:54;;;;;;;27.73;17.05;;;4.50;99.90;;;;;;5072625;28;20627;-84
2020/12/30 10:06:20;;;;;;;27.95;17.00;;;4.40;99.90;;;;;;5056949;28;20130;-82
2020/12/30 10:09:27;;;;;;;;;;;;;;;;;;;;;
2020/12/30 10:12:51;;;;;;;;;;;;;;;;;;;;;
2020/12/30 10:15:32;;;;;;;27.83;16.42;;;4.70;99.90;;;;;;4977127;28;20066;-84
2020/12/30 10:17:59;;;;;;;27.48;16.80;;;4.60;99.90;;;;;;4974329;28;20050;-83
2020/12/30 10:20:25;;;;;;;29.48;16.85;;;4.60;99.90;;;;;;4973146;28;20532;-80
2020/12/30 10:22:50;;;;;;;25.80;15.40;;;4.80;99.90;;;;;;4986044;28;20082;-83
2020/12/30 10:25:16;;;;;;;24.08;15.23;;;4.60;99.90;;;;;;4972948;28;20058;-81
2020/12/30 10:27:45;;;;;;;22.20;14.80;;;4.70;99.90;;;;;;4967106;28;20053;-77
2020/12/30 10:30:11;;;;;;;27.05;15.88;;;4.70;99.90;;;;;;4988499;28;20085;-81
2020/12/30 10:32:37;;;;;;;28.85;15.50;;;4.60;99.90;;;;;;4990482;28;20046;-79
2020/12/30 10:35:05;;;;;;;32.00;16.38;;;4.70;99.90;;;;;;4973210;28;20058;-79
2020/12/30 10:37:31;;;;;;;29.90;16.08;;;4.70;99.90;;;;;;4989936;28;20109;-79
2020/12/30 10:39:56;;;;;;;26.83;15.80;;;4.80;99.90;;;;;;4990644;28;20461;-79
2020/12/30 10:42:22;;;;;;;26.58;15.38;;;4.90;99.90;;;;;;4990688;28;20061;-79
2020/12/30 10:44:48;;;;;;;26.73;14.95;;;4.80;99.90;;;;;;4989926;28;20080;-79
2020/12/30 10:47:15;;;;;;;22.65;14.43;;;4.90;99.90;;;;;;4958379;28;20050;-79
2020/12/30 10:49:40;;;;;;;24.63;15.93;;;4.90;99.90;;;;;;5072379;28;20495;-79
2020/12/30 10:52:07;;;;;;;24.52;14.77;;;4.90;99.90;;;;;;5071857;28;20047;-79
2020/12/30 10:54:33;;;;;;;25.80;15.43;;;4.90;99.90;;;;;;5072992;28;20244;-79
2020/12/30 10:56:59;;;;;;;25.65;15.07;;;4.90;99.90;;;;;;5098641;28;20047;-79
2020/12/30 10:59:25;;;;;;;28.55;15.63;;;4.90;99.90;;;;;;5070431;28;20408;-79
2020/12/30 11:01:52;;;;;;;24.48;14.82;;;4.90;99.90;;;;;;5072210;28;20048;-79
2020/12/30 11:04:18;;;;;;;24.20;13.45;;;4.90;99.90;;;;;;5076109;28;20041;-79
2020/12/30 11:06:44;;;;;;;20.05;13.18;;;4.90;99.90;;;;;;5080555;28;20044;-79
2020/12/30 11:09:10;;;;;;;21.10;13.93;;;4.90;99.90;;;;;;5069099;28;20057;-79
2020/12/30 11:11:36;;;;;;;24.35;14.95;;;4.90;99.90;;;;;;5053538;28;20123;-79
2020/12/30 11:14:02;;;;;;;25.15;14.80;;;4.80;99.90;;;;;;5054142;28;20127;-79
2020/12/30 11:16:28;;;;;;;26.05;14.20;;;4.80;99.90;;;;;;5069022;28;20048;-79
2020/12/30 11:18:54;;;;;;;21.33;14.15;;;4.90;99.90;;;;;;5071910;28;20662;-80
2020/12/30 11:21:20;;;;;;;22.88;13.10;;;4.80;99.90;;;;;;5087549;28;20496;-77
2020/12/30 11:23:49;;;;;;;21.02;13.25;;;4.90;99.90;;;;;;5095193;28;20048;-76
2020/12/30 11:26:14;;;;;;;23.90;13.93;;;4.90;99.90;;;;;;5068817;28;20036;-77
2020/12/30 11:28:40;;;;;;;22.08;13.00;;;5.00;99.90;;;;;;5072376;28;20044;-76
2020/12/30 11:31:07;;;;;;;21.15;13.45;;;5.00;99.90;;;;;;5086640;28;20051;-78
2020/12/30 11:33:33;;;;;;;21.52;14.07;;;5.10;99.90;;;;;;5074081;28;20050;-77
2020/12/30 11:35:59;;;;;;;24.25;13.43;;;5.10;99.90;;;;;;5084242;28;20036;-78
2020/12/30 11:38:25;;;;;;;21.58;12.80;;;5.10;99.90;;;;;;5088583;28;20063;-77
2020/12/30 11:40:51;;;;;;;21.85;14.13;;;5.10;99.90;;;;;;5085575;28;20743;-76
2020/12/30 11:43:17;;;;;;;21.42;12.82;;;5.00;99.90;;;;;;5088170;28;20048;-77
2020/12/30 11:45:42;;;;;;;22.17;13.30;;;5.00;99.90;;;;;;5087850;28;20089;-78
2020/12/30 11:48:09;;;;;;;21.45;13.90;;;5.00;99.90;;;;;;5084565;28;20760;-79
2020/12/30 11:50:36;;;;;;;18.60;13.13;;;5.00;99.90;;;;;;5065235;28;20047;-80
2020/12/30 11:53:02;;;;;;;20.83;14.45;;;5.10;99.90;;;;;;5079630;28;20078;-80
2020/12/30 11:55:28;;;;;;;20.35;14.38;;;5.20;99.90;;;;;;5079046;28;20058;-80
2020/12/30 11:57:54;;;;;;;20.85;14.00;;;5.70;99.90;;;;;;5082106;28;20036;-82
2020/12/30 12:00:21;;;;;;;21.60;14.70;;;5.60;99.90;;;;;;5091190;28;20751;-81
2020/12/30 12:02:47;;;;;;;19.65;13.77;;;5.60;99.90;;;;;;5089973;28;20043;-81
2020/12/30 12:05:14;;;;;;;18.60;12.02;;;5.80;99.90;;;;;;5101802;28;20069;-80
2020/12/30 12:07:41;;;;;;;19.65;13.13;;;5.80;99.90;;;;;;5092881;28;20089;-80
2020/12/30 12:10:09;;;;;;;17.95;13.35;;;5.80;99.90;;;;;;5047949;28;20103;-81
2020/12/30 12:12:35;;;;;;;20.30;13.70;;;5.90;99.90;;;;;;5092309;28;20053;-81
2020/12/30 12:15:10;;;;;;;17.92;12.90;;;5.90;99.90;;;;;;5089688;28;20047;-82
2020/12/30 12:17:36;;;;;;;18.30;12.40;;;5.90;99.90;;;;;;5067126;28;20032;-83
2020/12/30 12:20:03;;;;;;;19.13;11.73;;;5.90;99.90;;;;;;5088944;28;20502;-82
2020/12/30 12:22:29;;;;;;;22.63;7.65;;;6.00;99.90;;;;;;5098358;28;20134;-79
2020/12/30 12:24:56;;;;;;;17.10;12.07;;;6.30;99.90;;;;;;5097103;28;20519;-85
2020/12/30 12:27:46;;;;;;;21.02;12.48;;;6.20;99.90;;;;;;5045089;28;20371;-83
2020/12/30 12:30:12;;;;;;;17.77;10.57;;;6.10;99.90;;;;;;5058707;28;20130;-83
2020/12/30 12:32:59;;;;;;;17.42;11.02;;;6.10;99.90;;;;;;5066028;28;20414;-83
2020/12/30 12:35:41;;;;;;;15.85;11.40;;;6.00;99.90;;;;;;5078943;28;20054;-84
2020/12/30 12:38:08;;;;;;;14.85;10.45;;;6.00;99.90;;;;;;5072464;28;20040;-80
2020/12/30 12:40:34;;;;;;;16.73;10.00;;;6.00;99.90;;;;;;5074646;28;20159;-82
2020/12/30 12:43:01;;;;;;;15.80;9.98;;;6.00;99.90;;;;;;5084200;28;20559;-78
2020/12/30 12:45:29;;;;;;;17.67;12.55;;;5.90;99.90;;;;;;5077125;28;20198;-76
2020/12/30 12:47:55;;;;;;;12.15;9.73;;;6.00;99.90;;;;;;5069288;28;20100;-76
2020/12/30 12:50:20;;;;;;;12.85;9.30;;;5.90;99.90;;;;;;5091040;28;20047;-79